Time;durP1;ratioP1;P1;durP2;ratioP2;P2;SDS_P1;SDS_P2;PMS_P1;PMS_P2;Temp;Humidity;BMP_temperature;BMP_pressure;BME280_temperature;BME280_humidity;BME280_pressure;Samples;Min_cycle;Max_cycle;Signal;HPM_P1;HPM_P2
2023/09/28 00:02:17;;;;;;;7.72;6.25;;;18.30;99.90;;;;;;5055397;28;20523;-66
2023/09/28 00:04:43;;;;;;;8.90;6.35;;;18.30;99.90;;;;;;5058233;28;20054;-67
2023/09/28 00:07:08;;;;;;;6.80;6.22;;;18.30;99.90;;;;;;4994890;28;20049;-67
2023/09/28 00:09:34;;;;;;;7.00;6.32;;;18.30;99.90;;;;;;4991363;28;20069;-67
2023/09/28 00:12:00;;;;;;;6.20;5.60;;;18.30;99.90;;;;;;5053538;28;20393;-66
2023/09/28 00:14:26;;;;;;;9.52;6.40;;;18.30;99.90;;;;;;5065371;28;20052;-66
2023/09/28 00:16:52;;;;;;;6.28;5.68;;;18.30;99.90;;;;;;4993950;28;20048;-66
2023/09/28 00:19:18;;;;;;;6.63;5.43;;;18.30;99.90;;;;;;5057934;28;20049;-66
2023/09/28 00:21:43;;;;;;;7.22;6.18;;;18.30;99.90;;;;;;4994317;28;20379;-66
2023/09/28 00:24:09;;;;;;;10.20;6.82;;;18.20;99.90;;;;;;5062213;28;20477;-66
2023/09/28 00:26:37;;;;;;;8.50;6.63;;;18.30;99.90;;;;;;5063678;28;20042;-66
2023/09/28 00:29:03;;;;;;;6.47;5.60;;;18.30;99.90;;;;;;4993142;28;20041;-66
2023/09/28 00:31:28;;;;;;;7.03;6.10;;;18.30;99.90;;;;;;5059898;28;20790;-66
2023/09/28 00:33:54;;;;;;;6.28;5.68;;;18.30;99.90;;;;;;5060177;28;20042;-67
2023/09/28 00:36:20;;;;;;;8.50;4.57;;;18.30;99.90;;;;;;4992109;28;20086;-67
2023/09/28 00:38:47;;;;;;;5.53;4.80;;;18.30;99.90;;;;;;5054799;28;20544;-67
2023/09/28 00:41:13;;;;;;;6.07;5.38;;;18.30;99.90;;;;;;5058851;28;20526;-66
2023/09/28 00:43:38;;;;;;;5.43;4.93;;;18.30;99.90;;;;;;5042380;28;20140;-66
2023/09/28 00:46:05;;;;;;;10.05;6.22;;;18.30;99.90;;;;;;5057240;28;20419;-66
2023/09/28 00:48:35;;;;;;;5.75;5.10;;;18.30;99.90;;;;;;4992769;28;20567;-66
2023/09/28 00:51:01;;;;;;;6.35;5.75;;;18.30;99.90;;;;;;4991578;28;20082;-66
2023/09/28 00:53:27;;;;;;;6.90;4.80;;;18.30;99.90;;;;;;5062196;28;20587;-66
2023/09/28 00:55:53;;;;;;;6.63;4.75;;;18.30;99.90;;;;;;5059752;28;20042;-66
2023/09/28 00:58:23;;;;;;;5.22;4.82;;;18.30;99.90;;;;;;5060825;28;20050;-66
2023/09/28 01:00:49;;;;;;;7.88;4.30;;;18.30;99.90;;;;;;4991795;28;20389;-67
2023/09/28 01:03:16;;;;;;;4.07;3.70;;;18.30;99.90;;;;;;4991987;28;20095;-67
2023/09/28 01:05:42;;;;;;;7.63;3.95;;;18.30;99.90;;;;;;5056820;28;20054;-67
2023/09/28 01:08:14;;;;;;;5.03;4.25;;;18.40;99.90;;;;;;5059716;28;20045;-67
2023/09/28 01:10:40;;;;;;;4.13;3.70;;;18.40;99.90;;;;;;4992991;28;20496;-66
2023/09/28 01:13:11;;;;;;;4.10;3.60;;;18.40;99.90;;;;;;5058625;28;20137;-66
2023/09/28 01:15:40;;;;;;;5.10;3.50;;;18.40;99.90;;;;;;5059429;28;20049;-66
2023/09/28 01:18:10;;;;;;;3.83;3.15;;;18.40;99.90;;;;;;5060142;28;20736;-66
2023/09/28 01:20:37;;;;;;;4.63;3.47;;;18.40;99.90;;;;;;4989361;28;20065;-67
2023/09/28 01:23:04;;;;;;;5.40;3.50;;;18.50;99.90;;;;;;5063958;28;20057;-67
2023/09/28 01:25:31;;;;;;;3.38;3.08;;;18.50;99.90;;;;;;5059208;28;20058;-66
2023/09/28 01:27:57;;;;;;;4.07;3.65;;;18.50;99.90;;;;;;5059497;28;20042;-66
2023/09/28 01:30:23;;;;;;;3.30;3.00;;;18.40;99.90;;;;;;5061114;28;20506;-67
2023/09/28 01:32:49;;;;;;;5.13;3.80;;;18.40;99.90;;;;;;5057595;28;20111;-67
2023/09/28 01:35:14;;;;;;;4.63;3.95;;;18.40;99.90;;;;;;5059585;28;20057;-66
2023/09/28 01:37:49;;;;;;;4.07;3.53;;;18.30;99.90;;;;;;5061663;28;20045;-66
2023/09/28 01:40:15;;;;;;;4.97;3.00;;;18.30;99.90;;;;;;5059021;28;20508;-66
2023/09/28 01:42:41;;;;;;;3.28;2.72;;;18.30;99.90;;;;;;5066699;28;20052;-66
2023/09/28 01:45:07;;;;;;;4.78;3.17;;;18.30;99.90;;;;;;4993619;28;20037;-66
2023/09/28 01:47:32;;;;;;;5.95;3.60;;;18.20;99.90;;;;;;4996692;28;20053;-67
2023/09/28 01:50:00;;;;;;;4.15;3.47;;;18.20;99.90;;;;;;4992905;28;20049;-66
2023/09/28 01:52:26;;;;;;;4.82;3.88;;;18.20;99.90;;;;;;5064567;28;20095;-66
2023/09/28 01:54:51;;;;;;;3.97;3.63;;;18.10;99.90;;;;;;5063799;28;20045;-66
2023/09/28 01:57:17;;;;;;;3.78;3.38;;;18.10;99.90;;;;;;5058572;28;20503;-66
2023/09/28 01:59:43;;;;;;;5.22;3.60;;;18.10;99.90;;;;;;4995789;28;20050;-66
2023/09/28 02:02:08;;;;;;;7.05;3.80;;;17.90;99.90;;;;;;4996479;28;20042;-67
2023/09/28 02:04:37;;;;;;;4.60;3.58;;;18.00;99.90;;;;;;5059282;28;20478;-66
2023/09/28 02:07:02;;;;;;;4.25;3.40;;;17.90;99.90;;;;;;4993534;28;20064;-66
2023/09/28 02:09:29;;;;;;;4.68;3.50;;;17.90;99.90;;;;;;4994825;28;20046;-66
2023/09/28 02:11:54;;;;;;;5.38;3.67;;;17.90;99.90;;;;;;4996005;28;20792;-66
2023/09/28 02:14:20;;;;;;;3.95;3.40;;;17.80;99.90;;;;;;5061304;28;20045;-66
2023/09/28 02:16:46;;;;;;;5.40;4.30;;;17.80;99.90;;;;;;5059541;28;20050;-66
2023/09/28 02:19:12;;;;;;;4.13;3.72;;;17.80;99.90;;;;;;5061676;28;20050;-66
2023/09/28 02:21:37;;;;;;;5.25;3.42;;;17.70;99.90;;;;;;5064083;28;20117;-66
2023/09/28 02:24:03;;;;;;;6.20;3.38;;;17.70;99.90;;;;;;4996001;28;20050;-67
2023/09/28 02:26:29;;;;;;;4.15;3.80;;;17.60;99.90;;;;;;5061657;28;20038;-66
2023/09/28 02:28:55;;;;;;;4.72;4.10;;;17.60;99.90;;;;;;4996018;28;20049;-66
2023/09/28 02:31:20;;;;;;;3.90;3.60;;;17.50;99.90;;;;;;5062499;28;20070;-66
2023/09/28 02:33:47;;;;;;;6.13;3.97;;;17.50;99.90;;;;;;4994295;28;20042;-66
2023/09/28 02:36:12;;;;;;;3.75;3.45;;;17.40;99.90;;;;;;5060612;28;20552;-66
2023/09/28 02:38:38;;;;;;;4.85;3.67;;;17.40;99.90;;;;;;5061687;28;20050;-66
2023/09/28 02:41:04;;;;;;;7.43;4.10;;;17.30;99.90;;;;;;5065799;28;20592;-66
2023/09/28 02:43:30;;;;;;;4.40;3.65;;;17.30;99.90;;;;;;4993511;28;20057;-66
2023/09/28 02:45:55;;;;;;;5.28;3.63;;;17.30;99.90;;;;;;5065066;28;20495;-66
2023/09/28 02:48:21;;;;;;;4.25;3.85;;;17.30;99.90;;;;;;4995372;28;20124;-66
2023/09/28 02:50:48;;;;;;;5.97;4.20;;;17.20;99.90;;;;;;5062465;28;20046;-66
2023/09/28 02:53:14;;;;;;;5.22;4.13;;;17.20;99.90;;;;;;5062787;28;20053;-66
2023/09/28 02:55:39;;;;;;;4.78;4.07;;;17.10;99.90;;;;;;5000149;28;20042;-66
2023/09/28 02:58:05;;;;;;;4.53;4.13;;;17.10;99.90;;;;;;4993809;28;20137;-66
2023/09/28 03:00:33;;;;;;;5.05;4.40;;;17.10;99.90;;;;;;5059822;28;20706;-67
2023/09/28 03:03:06;;;;;;;5.63;3.90;;;17.00;99.90;;;;;;5062341;28;20471;-67
2023/09/28 03:05:32;;;;;;;5.88;3.85;;;17.00;99.90;;;;;;4993865;28;20056;-67
2023/09/28 03:07:58;;;;;;;5.22;4.65;;;17.00;99.90;;;;;;4994488;28;20042;-67
2023/09/28 03:10:24;;;;;;;5.07;4.25;;;16.90;99.90;;;;;;4993842;28;20042;-67
2023/09/28 03:12:51;;;;;;;5.80;5.10;;;17.00;99.90;;;;;;5062084;28;20068;-67
2023/09/28 03:15:17;;;;;;;5.45;4.78;;;16.80;99.90;;;;;;5061554;28;20042;-67
2023/09/28 03:17:43;;;;;;;7.07;5.28;;;16.90;99.90;;;;;;5062268;28;20049;-67
2023/09/28 03:20:17;;;;;;;5.50;5.00;;;16.80;99.90;;;;;;4996239;28;20361;-67
2023/09/28 03:22:45;;;;;;;6.35;5.22;;;16.80;99.90;;;;;;5060588;28;20053;-67
2023/09/28 03:25:16;;;;;;;6.63;5.93;;;16.80;99.90;;;;;;5061291;28;21083;-67
2023/09/28 03:27:43;;;;;;;6.45;5.60;;;16.70;99.90;;;;;;5060644;28;20050;-67
2023/09/28 03:30:10;;;;;;;7.28;6.03;;;16.70;99.90;;;;;;5057477;28;20046;-67
2023/09/28 03:32:40;;;;;;;6.63;5.60;;;16.70;99.90;;;;;;5056447;28;20133;-67
2023/09/28 03:35:08;;;;;;;6.30;5.70;;;16.70;99.90;;;;;;5058076;28;20078;-67
2023/09/28 03:37:33;;;;;;;7.15;5.78;;;16.70;99.90;;;;;;5060742;28;20049;-66
2023/09/28 03:40:00;;;;;;;5.80;5.20;;;16.60;99.90;;;;;;5058563;28;20111;-66
2023/09/28 03:42:27;;;;;;;6.53;5.60;;;16.60;99.90;;;;;;5058550;28;20054;-66
2023/09/28 03:44:53;;;;;;;7.50;6.00;;;16.50;99.90;;;;;;5044092;28;20091;-66
2023/09/28 03:47:19;;;;;;;7.88;5.75;;;16.50;99.90;;;;;;5060989;28;20038;-66
2023/09/28 03:49:45;;;;;;;8.05;5.07;;;16.50;99.90;;;;;;4992882;28;20042;-66
2023/09/28 03:52:10;;;;;;;8.88;5.70;;;16.50;99.90;;;;;;4994314;28;20544;-66
2023/09/28 03:54:36;;;;;;;6.72;5.00;;;16.50;99.90;;;;;;5057589;28;20057;-66
2023/09/28 03:57:02;;;;;;;6.43;5.45;;;16.40;99.90;;;;;;5057701;28;20510;-66
2023/09/28 03:59:28;;;;;;;6.95;5.40;;;16.40;99.90;;;;;;4996016;28;20050;-66
2023/09/28 04:01:53;;;;;;;6.68;5.78;;;16.40;99.90;;;;;;5060423;28;20499;-66
2023/09/28 04:04:19;;;;;;;7.70;5.72;;;16.30;99.90;;;;;;5060868;28;20454;-66
2023/09/28 04:06:45;;;;;;;6.75;5.40;;;16.30;99.90;;;;;;5056278;28;20124;-66
2023/09/28 04:09:11;;;;;;;6.90;5.28;;;16.30;99.90;;;;;;4988301;28;20125;-66
2023/09/28 04:11:37;;;;;;;6.65;5.63;;;16.20;99.90;;;;;;5056859;28;20042;-66
2023/09/28 04:14:02;;;;;;;5.47;4.72;;;16.20;99.90;;;;;;4991238;28;20145;-66
2023/09/28 04:16:28;;;;;;;7.47;5.32;;;16.30;99.90;;;;;;5057381;28;20152;-66
2023/09/28 04:18:54;;;;;;;6.88;6.03;;;16.10;99.90;;;;;;4990767;28;20069;-66
2023/09/28 04:21:19;;;;;;;8.45;5.30;;;16.20;99.90;;;;;;4989106;28;20189;-66
2023/09/28 04:23:45;;;;;;;6.45;5.05;;;16.10;99.90;;;;;;5056376;28;20042;-66
2023/09/28 04:26:11;;;;;;;6.38;5.05;;;16.10;99.90;;;;;;5062873;28;20073;-66
2023/09/28 04:28:36;;;;;;;7.22;5.20;;;16.10;99.90;;;;;;5055854;28;20053;-66
2023/09/28 04:31:02;;;;;;;7.47;4.85;;;16.10;99.90;;;;;;5058448;28;20043;-66
2023/09/28 04:33:27;;;;;;;7.47;5.15;;;16.10;99.90;;;;;;5059300;28;20078;-66
2023/09/28 04:35:53;;;;;;;8.57;5.43;;;16.10;99.90;;;;;;5061103;28;20047;-67
2023/09/28 04:38:19;;;;;;;6.03;5.18;;;16.10;99.90;;;;;;5057405;28;20051;-66
2023/09/28 04:40:45;;;;;;;5.53;4.82;;;16.10;99.90;;;;;;4997272;28;20050;-66
2023/09/28 04:43:10;;;;;;;7.85;5.05;;;16.10;99.90;;;;;;5060859;28;20081;-66
2023/09/28 04:45:36;;;;;;;6.13;5.35;;;16.10;99.90;;;;;;5059116;28;20045;-66
2023/09/28 04:48:01;;;;;;;11.60;6.03;;;16.10;99.90;;;;;;5052584;28;20042;-66
2023/09/28 04:50:27;;;;;;;8.45;5.57;;;16.10;99.90;;;;;;5058350;28;20462;-66
2023/09/28 04:52:54;;;;;;;10.05;4.80;;;16.10;99.90;;;;;;5058969;28;20137;-66
2023/09/28 04:55:20;;;;;;;11.13;5.00;;;16.10;99.90;;;;;;5060247;28;20071;-66
2023/09/28 04:57:45;;;;;;;7.30;5.07;;;16.10;99.90;;;;;;5061236;28;20041;-66
2023/09/28 05:00:15;;;;;;;7.78;5.28;;;16.20;99.90;;;;;;5060461;28;20046;-67
2023/09/28 05:02:43;;;;;;;6.03;4.63;;;16.10;99.90;;;;;;5064674;28;20050;-66
2023/09/28 05:05:08;;;;;;;10.07;5.22;;;16.20;99.90;;;;;;5064354;28;20079;-66
2023/09/28 05:07:34;;;;;;;7.55;5.18;;;16.20;99.90;;;;;;5069764;28;20080;-66
2023/09/28 05:10:00;;;;;;;6.93;5.22;;;16.20;99.90;;;;;;4999918;28;20034;-66
2023/09/28 05:12:26;;;;;;;7.25;5.68;;;16.20;99.90;;;;;;5069583;28;20041;-66
2023/09/28 05:14:51;;;;;;;8.13;5.45;;;16.20;99.90;;;;;;5064570;28;20498;-66
2023/09/28 05:17:17;;;;;;;12.15;5.80;;;16.10;99.90;;;;;;5001055;28;20037;-67
2023/09/28 05:19:42;;;;;;;12.18;5.55;;;16.10;99.90;;;;;;5001483;28;20049;-67
2023/09/28 05:22:10;;;;;;;6.68;4.80;;;16.20;99.90;;;;;;5067074;28;20034;-67
2023/09/28 05:24:35;;;;;;;6.97;5.68;;;16.20;99.90;;;;;;5069741;28;20075;-67
2023/09/28 05:27:01;;;;;;;8.90;4.53;;;16.20;99.90;;;;;;5051769;28;20093;-67
2023/09/28 05:29:29;;;;;;;10.43;5.28;;;16.20;99.90;;;;;;5060150;28;20946;-67
2023/09/28 05:31:55;;;;;;;9.93;5.13;;;16.20;99.90;;;;;;5063989;28;20042;-67
2023/09/28 05:34:21;;;;;;;7.68;4.40;;;16.20;99.90;;;;;;4999020;28;20148;-66
2023/09/28 05:36:47;;;;;;;5.55;4.53;;;16.20;99.90;;;;;;5055066;28;20389;-67
2023/09/28 05:39:12;;;;;;;6.20;4.55;;;16.20;99.90;;;;;;5064817;28;20381;-67
2023/09/28 05:41:38;;;;;;;6.25;4.57;;;16.20;99.90;;;;;;5069308;28;20087;-67
2023/09/28 05:44:04;;;;;;;8.10;4.38;;;16.10;99.90;;;;;;5063639;28;20042;-67
2023/09/28 05:46:30;;;;;;;6.22;4.63;;;16.10;99.90;;;;;;5068963;28;20049;-68
2023/09/28 05:48:56;;;;;;;7.60;4.88;;;16.10;99.90;;;;;;5064522;28;20057;-68
2023/09/28 05:51:22;;;;;;;6.88;4.43;;;16.10;99.90;;;;;;5065181;28;20038;-68
2023/09/28 05:53:51;;;;;;;8.63;5.05;;;16.10;99.90;;;;;;5070530;28;20053;-68
2023/09/28 05:56:17;;;;;;;7.38;4.40;;;16.10;99.90;;;;;;5066895;28;20049;-69
2023/09/28 05:58:42;;;;;;;6.68;4.40;;;16.20;99.90;;;;;;5002621;28;20038;-68
2023/09/28 06:01:13;;;;;;;7.30;4.97;;;16.20;99.90;;;;;;5000191;28;20031;-68
2023/09/28 06:03:39;;;;;;;6.75;4.10;;;16.20;99.90;;;;;;5066695;28;20125;-68
2023/09/28 06:06:16;;;;;;;7.72;4.05;;;16.30;99.90;;;;;;5066801;28;20045;-68
2023/09/28 06:08:42;;;;;;;5.93;3.88;;;16.20;99.90;;;;;;5051992;28;20044;-68
2023/09/28 06:11:13;;;;;;;10.00;3.42;;;16.50;99.90;;;;;;5067672;28;20045;-68
2023/09/28 06:13:42;;;;;;;7.78;4.07;;;16.60;99.90;;;;;;4998147;28;20092;-68
2023/09/28 06:16:11;;;;;;;7.65;3.72;;;16.80;99.90;;;;;;5069130;28;20048;-68
2023/09/28 06:18:37;;;;;;;8.15;3.20;;;17.00;99.90;;;;;;5000657;28;20390;-68
2023/09/28 06:21:03;;;;;;;9.43;3.85;;;17.30;99.90;;;;;;4999604;28;20042;-68
2023/09/28 06:23:28;;;;;;;9.20;3.75;;;17.60;99.90;;;;;;5067482;28;20046;-68
2023/09/28 06:25:54;;;;;;;7.45;3.28;;;18.00;99.90;;;;;;5004783;28;20045;-68
2023/09/28 06:28:23;;;;;;;9.18;3.33;;;18.30;99.90;;;;;;5068829;28;20050;-69
2023/09/28 06:30:49;;;;;;;8.15;3.15;;;18.50;99.90;;;;;;5069306;28;20078;-68
2023/09/28 06:33:15;;;;;;;7.75;2.85;;;18.80;99.90;;;;;;5065907;28;20373;-68
2023/09/28 06:35:41;;;;;;;8.75;3.40;;;19.00;99.90;;;;;;5064455;28;20052;-68
2023/09/28 06:38:06;;;;;;;14.05;4.10;;;19.00;99.90;;;;;;5063287;28;20045;-68
2023/09/28 06:40:32;;;;;;;10.57;3.55;;;18.80;99.90;;;;;;5066415;28;20042;-68
2023/09/28 06:42:58;;;;;;;10.05;3.40;;;18.70;99.90;;;;;;4999478;28;20056;-68
2023/09/28 06:45:23;;;;;;;11.77;3.88;;;18.60;99.90;;;;;;5067327;28;20125;-68
2023/09/28 06:47:49;;;;;;;13.60;3.47;;;18.50;99.90;;;;;;5064674;28;20046;-68
2023/09/28 06:50:15;;;;;;;12.77;3.60;;;18.40;99.90;;;;;;5066004;28;20056;-68
2023/09/28 06:52:41;;;;;;;12.90;3.97;;;18.30;99.90;;;;;;5082822;28;20075;-68
2023/09/28 06:55:07;;;;;;;8.98;3.05;;;18.30;99.90;;;;;;5072131;28;20412;-68
2023/09/28 06:57:33;;;;;;;13.75;3.55;;;18.50;99.90;;;;;;5066726;28;20125;-68
2023/09/28 07:00:01;;;;;;;15.63;3.88;;;18.70;99.90;;;;;;4999438;28;20582;-68
2023/09/28 07:02:26;;;;;;;11.38;2.97;;;18.80;99.90;;;;;;5066927;28;20433;-68
2023/09/28 07:04:52;;;;;;;9.88;3.20;;;18.80;99.90;;;;;;5067405;28;20042;-68
2023/09/28 07:07:18;;;;;;;17.00;3.65;;;18.80;99.90;;;;;;5007842;28;20041;-68
2023/09/28 07:09:44;;;;;;;12.43;4.10;;;18.80;99.90;;;;;;5067470;28;20045;-68
2023/09/28 07:12:12;;;;;;;10.13;3.60;;;18.70;99.90;;;;;;5067902;28;20071;-69
2023/09/28 07:14:38;;;;;;;11.93;3.65;;;18.80;99.90;;;;;;5067809;28;20055;-68
2023/09/28 07:17:05;;;;;;;14.70;4.03;;;18.80;99.90;;;;;;5069506;28;20543;-68
2023/09/28 07:19:31;;;;;;;13.27;3.35;;;18.90;99.90;;;;;;5067265;28;20054;-69
2023/09/28 07:21:57;;;;;;;12.77;3.60;;;19.10;99.90;;;;;;5072313;28;20480;-68
2023/09/28 07:24:22;;;;;;;16.48;4.72;;;19.20;99.90;;;;;;5001949;28;20050;-69
2023/09/28 07:26:48;;;;;;;9.73;3.00;;;19.10;99.90;;;;;;5000765;28;20125;-68
2023/09/28 07:29:14;;;;;;;14.68;4.30;;;19.00;99.90;;;;;;5079374;28;20041;-68
2023/09/28 07:31:39;;;;;;;14.55;4.57;;;18.90;99.90;;;;;;5067964;28;20042;-68
2023/09/28 07:34:05;;;;;;;14.27;4.70;;;18.90;99.90;;;;;;5067957;28;20095;-68
2023/09/28 07:36:31;;;;;;;15.32;4.35;;;18.80;99.90;;;;;;5070615;28;20056;-68
2023/09/28 07:38:57;;;;;;;19.35;3.53;;;18.80;99.90;;;;;;5072134;28;20042;-68
2023/09/28 07:41:22;;;;;;;17.52;4.93;;;18.70;99.90;;;;;;5001308;28;20053;-68
2023/09/28 07:43:49;;;;;;;22.42;5.22;;;18.70;99.90;;;;;;4999085;28;20068;-68
2023/09/28 07:46:15;;;;;;;14.10;4.25;;;18.70;99.90;;;;;;5068404;28;20322;-68
2023/09/28 07:48:40;;;;;;;18.40;4.35;;;18.60;99.90;;;;;;4998707;28;20470;-68
2023/09/28 07:51:06;;;;;;;21.23;4.80;;;18.60;99.90;;;;;;5069288;28;20053;-68
2023/09/28 07:53:32;;;;;;;19.45;4.28;;;18.60;99.90;;;;;;5001769;28;20030;-68
2023/09/28 07:55:57;;;;;;;18.58;3.65;;;18.60;99.90;;;;;;5068400;28;20179;-68
2023/09/28 07:58:23;;;;;;;17.95;4.50;;;18.60;99.90;;;;;;4996031;28;20103;-68
2023/09/28 08:00:49;;;;;;;17.48;5.32;;;18.60;99.90;;;;;;5069080;28;20066;-68
2023/09/28 08:03:15;;;;;;;18.45;5.03;;;18.60;99.90;;;;;;5002099;28;20074;-68
2023/09/28 08:05:41;;;;;;;15.95;3.67;;;18.60;99.90;;;;;;5066855;28;20050;-68
2023/09/28 08:08:07;;;;;;;20.77;4.53;;;18.60;99.90;;;;;;5070809;28;20070;-68
2023/09/28 08:10:33;;;;;;;19.33;4.55;;;18.60;99.90;;;;;;5067975;28;20078;-68
2023/09/28 08:13:00;;;;;;;24.48;5.30;;;18.50;99.90;;;;;;5070072;28;20042;-68
2023/09/28 08:15:25;;;;;;;26.85;4.32;;;18.60;99.90;;;;;;4995428;28;20046;-68
2023/09/28 08:17:51;;;;;;;29.35;5.10;;;18.60;99.90;;;;;;4999372;28;20041;-68
2023/09/28 08:20:17;;;;;;;16.92;3.97;;;18.60;99.90;;;;;;4999355;28;20038;-68
2023/09/28 08:22:43;;;;;;;15.98;3.70;;;18.60;99.90;;;;;;5053489;28;20069;-68
2023/09/28 08:25:09;;;;;;;20.05;4.70;;;18.70;99.90;;;;;;5064076;28;20073;-68
2023/09/28 08:27:35;;;;;;;17.85;3.63;;;18.70;99.90;;;;;;5066103;28;20042;-68
2023/09/28 08:30:02;;;;;;;18.85;4.22;;;18.70;99.90;;;;;;5065545;28;20558;-68
2023/09/28 08:32:27;;;;;;;19.30;4.40;;;18.70;99.90;;;;;;5062999;28;20080;-68
2023/09/28 08:34:53;;;;;;;24.13;4.75;;;18.90;99.90;;;;;;4998887;28;20157;-68
2023/09/28 08:37:19;;;;;;;17.40;3.58;;;18.90;99.90;;;;;;5070820;28;20038;-69
2023/09/28 08:39:45;;;;;;;18.30;4.63;;;18.90;99.90;;;;;;5067279;28;20053;-68
2023/09/28 08:42:15;;;;;;;17.27;4.00;;;19.10;99.90;;;;;;5069807;28;20458;-69
2023/09/28 08:44:41;;;;;;;20.85;4.53;;;19.10;99.90;;;;;;5080889;28;20038;-68
2023/09/28 08:47:17;;;;;;;20.38;4.60;;;19.20;99.90;;;;;;5001209;28;20395;-68
2023/09/28 08:49:46;;;;;;;;;;;19.20;99.90;;;;;;4997016;28;20506;-68
2023/09/28 08:52:14;;;;;;;22.02;4.05;;;19.10;99.90;;;;;;5069139;28;19956;-68
2023/09/28 08:54:41;;;;;;;16.27;3.78;;;19.10;99.90;;;;;;4998780;28;20411;-69
2023/09/28 08:57:08;;;;;;;17.98;4.35;;;19.10;99.90;;;;;;5064556;28;20132;-69
2023/09/28 08:59:35;;;;;;;16.67;3.92;;;19.20;99.90;;;;;;4995361;28;20431;-68
2023/09/28 09:02:03;;;;;;;20.30;5.43;;;19.20;99.90;;;;;;5065910;28;20654;-68
2023/09/28 09:04:34;;;;;;;16.15;4.78;;;19.10;99.90;;;;;;4998890;28;20050;-69
2023/09/28 09:07:04;;;;;;;21.20;4.18;;;19.20;99.90;;;;;;5066813;28;20050;-69
2023/09/28 09:09:34;;;;;;;16.95;4.97;;;19.20;99.90;;;;;;4999225;28;20062;-69
2023/09/28 09:12:05;;;;;;;18.75;4.53;;;19.20;99.90;;;;;;5066226;28;20030;-68
2023/09/28 09:14:31;;;;;;;17.48;4.68;;;19.30;99.90;;;;;;5063064;28;20500;-69
2023/09/28 09:16:57;;;;;;;14.00;3.75;;;19.20;99.90;;;;;;4999202;28;20067;-68
2023/09/28 09:19:32;;;;;;;17.77;4.20;;;19.20;99.90;;;;;;5069394;28;20033;-68
2023/09/28 09:21:58;;;;;;;16.83;4.68;;;19.10;99.90;;;;;;5066806;28;20375;-68
2023/09/28 09:24:24;;;;;;;17.65;3.55;;;19.10;99.90;;;;;;5065174;28;20050;-68
2023/09/28 09:26:56;;;;;;;27.30;4.70;;;19.20;99.90;;;;;;4998768;28;20049;-68
2023/09/28 09:29:22;;;;;;;16.48;3.92;;;19.20;99.90;;;;;;5001203;28;20113;-69
2023/09/28 09:31:49;;;;;;;19.52;4.78;;;19.10;99.90;;;;;;5080373;28;20042;-69
2023/09/28 09:34:19;;;;;;;16.85;4.53;;;19.10;99.90;;;;;;4996949;28;20370;-69
2023/09/28 09:36:55;;;;;;;17.50;5.22;;;19.20;99.90;;;;;;5067114;28;20049;-68
2023/09/28 09:39:30;;;;;;;18.77;4.03;;;19.20;99.90;;;;;;4995664;28;20481;-68
2023/09/28 09:41:57;;;;;;;18.40;4.82;;;19.30;99.90;;;;;;5064326;28;20038;-68
2023/09/28 09:44:24;;;;;;;21.33;5.53;;;19.20;99.90;;;;;;5067176;28;20099;-68
2023/09/28 09:46:52;;;;;;;21.92;5.13;;;19.30;99.90;;;;;;4998467;28;20030;-68
2023/09/28 09:49:19;;;;;;;20.88;4.35;;;19.30;99.90;;;;;;4997087;28;20526;-68
2023/09/28 09:51:46;;;;;;;15.05;4.18;;;19.40;99.90;;;;;;5003177;28;20045;-68
2023/09/28 09:54:16;;;;;;;21.90;3.72;;;19.40;99.90;;;;;;5067816;28;20160;-68
2023/09/28 09:56:49;;;;;;;15.35;3.60;;;19.50;99.90;;;;;;5073503;28;20468;-68
2023/09/28 09:59:16;;;;;;;19.00;3.80;;;19.50;99.90;;;;;;5068694;28;20072;-68
2023/09/28 10:01:48;;;;;;;16.58;4.00;;;19.60;99.90;;;;;;5000398;28;20041;-69
2023/09/28 10:04:18;;;;;;;20.15;3.72;;;19.50;99.90;;;;;;5070169;28;20046;-68
2023/09/28 10:06:52;;;;;;;24.45;5.53;;;19.50;99.90;;;;;;5070144;28;20042;-68
2023/09/28 10:09:19;;;;;;;21.35;4.95;;;19.50;99.90;;;;;;5070095;28;20401;-68
2023/09/28 10:11:48;;;;;;;15.90;3.88;;;19.50;99.90;;;;;;5000881;28;20048;-68
2023/09/28 10:14:19;;;;;;;24.58;5.22;;;19.50;99.90;;;;;;5067416;28;20512;-68
2023/09/28 10:16:50;;;;;;;19.55;4.00;;;19.50;99.90;;;;;;5070179;28;20064;-68
2023/09/28 10:19:21;;;;;;;15.65;4.05;;;19.50;99.90;;;;;;5002901;28;20100;-69
2023/09/28 10:21:47;;;;;;;22.52;5.13;;;19.50;99.90;;;;;;5068247;28;20104;-69
2023/09/28 10:24:17;;;;;;;19.92;3.80;;;19.50;99.90;;;;;;5070863;28;20089;-69
2023/09/28 10:26:51;;;;;;;16.05;4.10;;;19.50;99.90;;;;;;4998209;28;20121;-68
2023/09/28 10:29:30;;;;;;;18.48;5.13;;;19.50;99.90;;;;;;4996860;28;20053;-68
2023/09/28 10:31:57;;;;;;;19.75;4.07;;;19.60;99.90;;;;;;5065791;28;20078;-68
2023/09/28 10:34:23;;;;;;;18.27;3.72;;;19.60;99.90;;;;;;4997238;28;20567;-68
2023/09/28 10:37:18;;;;;;;14.88;4.35;;;19.60;99.90;;;;;;5001957;28;20458;-68
2023/09/28 10:39:48;;;;;;;23.60;5.25;;;19.60;99.90;;;;;;4999768;28;20046;-68
2023/09/28 10:42:17;;;;;;;15.55;3.88;;;19.60;99.90;;;;;;5070638;28;20076;-69
2023/09/28 10:44:53;;;;;;;25.60;5.38;;;19.60;99.90;;;;;;5068662;28;20046;-69
2023/09/28 10:47:20;;;;;;;21.48;4.25;;;19.60;99.90;;;;;;5065689;28;20034;-69
2023/09/28 10:49:48;;;;;;;20.02;5.20;;;19.60;99.90;;;;;;5066158;28;20049;-69
2023/09/28 10:52:14;;;;;;;19.58;3.90;;;19.70;99.90;;;;;;5065123;28;20071;-69
2023/09/28 10:54:41;;;;;;;26.58;4.80;;;19.70;99.90;;;;;;5001905;28;20129;-69
2023/09/28 10:57:07;;;;;;;16.05;4.15;;;19.70;99.90;;;;;;5069885;28;20896;-69
2023/09/28 10:59:36;;;;;;;18.92;3.38;;;19.70;99.90;;;;;;5066387;28;20129;-69
2023/09/28 11:02:02;;;;;;;21.42;3.97;;;19.70;99.90;;;;;;5064049;28;20049;-69
2023/09/28 11:04:29;;;;;;;22.20;4.15;;;19.70;99.90;;;;;;5069497;28;20050;-69
2023/09/28 11:06:55;;;;;;;14.88;3.58;;;19.70;99.90;;;;;;5003449;28;20027;-69
2023/09/28 11:09:21;;;;;;;22.40;3.75;;;19.70;99.90;;;;;;5064345;28;20564;-69
2023/09/28 11:11:49;;;;;;;17.55;3.38;;;19.70;99.90;;;;;;4999586;28;20086;-69
2023/09/28 11:14:14;;;;;;;20.33;5.03;;;19.70;99.90;;;;;;5067551;28;20038;-69
2023/09/28 11:16:41;;;;;;;19.02;3.55;;;19.70;99.90;;;;;;5000090;28;20034;-69
2023/09/28 11:19:10;;;;;;;17.38;3.70;;;19.70;99.90;;;;;;5001415;28;20068;-68
2023/09/28 11:21:35;;;;;;;17.90;3.30;;;19.70;99.90;;;;;;5002024;28;20041;-69
2023/09/28 11:24:04;;;;;;;18.10;4.40;;;19.70;99.90;;;;;;5001674;28;20061;-69
2023/09/28 11:26:31;;;;;;;19.17;5.15;;;19.70;99.90;;;;;;5000631;28;20048;-69
2023/09/28 11:28:58;;;;;;;19.15;4.03;;;19.70;99.90;;;;;;5065958;28;20050;-69
2023/09/28 11:31:25;;;;;;;15.48;4.15;;;19.70;99.90;;;;;;5069733;28;20042;-69
2023/09/28 11:33:50;;;;;;;16.30;3.40;;;19.70;99.90;;;;;;5004227;28;20118;-69
2023/09/28 11:36:21;;;;;;;17.17;3.63;;;19.70;99.90;;;;;;4999743;28;20084;-68
2023/09/28 11:38:47;;;;;;;18.13;4.18;;;19.70;99.90;;;;;;5046244;28;20038;-69
2023/09/28 11:41:14;;;;;;;20.23;3.65;;;19.80;99.90;;;;;;4999170;28;20419;-69
2023/09/28 11:43:56;;;;;;;20.98;5.63;;;19.80;99.90;;;;;;5003031;28;20056;-69
2023/09/28 11:46:29;;;;;;;16.63;3.67;;;19.80;99.90;;;;;;4998013;28;20388;-69
2023/09/28 11:49:05;;;;;;;21.92;4.57;;;19.70;99.90;;;;;;5064009;28;20487;-69
2023/09/28 11:51:34;;;;;;;23.02;4.32;;;19.80;99.90;;;;;;5000254;28;20074;-69
2023/09/28 11:54:07;;;;;;;28.35;6.05;;;19.80;99.90;;;;;;5064652;28;20458;-69
2023/09/28 11:56:33;;;;;;;14.95;2.85;;;19.80;99.90;;;;;;4998281;28;20045;-69
2023/09/28 11:58:59;;;;;;;17.42;3.47;;;19.70;99.90;;;;;;5067646;28;20088;-69
2023/09/28 12:01:25;;;;;;;23.60;4.75;;;19.70;99.90;;;;;;5001473;28;20480;-69
2023/09/28 12:03:50;;;;;;;19.08;4.38;;;19.60;99.90;;;;;;5068368;28;20042;-69
2023/09/28 12:06:17;;;;;;;15.20;3.83;;;19.60;99.90;;;;;;4997531;28;20034;-68
2023/09/28 12:08:44;;;;;;;20.02;4.28;;;19.60;99.90;;;;;;5065906;28;20046;-69
2023/09/28 12:11:10;;;;;;;15.50;3.42;;;19.70;99.90;;;;;;4998160;28;20042;-68
2023/09/28 12:13:36;;;;;;;27.40;4.80;;;19.70;99.90;;;;;;5050352;28;20042;-68
2023/09/28 12:16:03;;;;;;;22.42;4.50;;;19.80;99.90;;;;;;5066261;28;20120;-69
2023/09/28 12:18:29;;;;;;;24.02;4.57;;;19.80;99.90;;;;;;5068253;28;20045;-69
2023/09/28 12:20:56;;;;;;;20.88;4.13;;;19.80;99.90;;;;;;5064491;28;20243;-68
2023/09/28 12:23:22;;;;;;;18.35;4.43;;;19.80;99.90;;;;;;5066840;28;20050;-69
2023/09/28 12:25:48;;;;;;;18.40;3.30;;;19.80;99.90;;;;;;4999408;28;20501;-68
2023/09/28 12:28:13;;;;;;;14.23;3.83;;;19.80;99.90;;;;;;4999268;28;20121;-68
2023/09/28 12:30:39;;;;;;;22.38;4.95;;;19.80;99.90;;;;;;4997981;28;20042;-69
2023/09/28 12:33:07;;;;;;;17.83;3.58;;;19.80;99.90;;;;;;5066492;28;20489;-69
2023/09/28 12:35:33;;;;;;;18.23;4.38;;;19.80;99.90;;;;;;5001106;28;20391;-68
2023/09/28 12:37:59;;;;;;;23.67;4.82;;;19.90;99.90;;;;;;5065003;28;20396;-69
2023/09/28 12:40:25;;;;;;;27.25;5.28;;;19.90;99.90;;;;;;5068035;28;20092;-69
2023/09/28 12:42:51;;;;;;;20.73;4.93;;;20.00;99.90;;;;;;5066268;28;20077;-69